sensor_id;sensor_type;location;lat;lon;timestamp;pressure;altitude;pressure_sealevel;temperature
10598;BMP180;5346;48.766;8.674;2023-11-21T00:00:31;93375.00;;;5.80
10598;BMP180;5346;48.766;8.674;2023-11-21T00:03:05;93372.00;;;5.80
10598;BMP180;5346;48.766;8.674;2023-11-21T00:05:34;93373.00;;;5.80
10598;BMP180;5346;48.766;8.674;2023-11-21T00:08:09;93372.00;;;5.90
10598;BMP180;5346;48.766;8.674;2023-11-21T00:10:42;93371.00;;;6.00
10598;BMP180;5346;48.766;8.674;2023-11-21T00:13:16;93370.00;;;6.00
10598;BMP180;5346;48.766;8.674;2023-11-21T00:15:45;93370.00;;;6.10
10598;BMP180;5346;48.766;8.674;2023-11-21T00:18:20;93376.00;;;6.00
10598;BMP180;5346;48.766;8.674;2023-11-21T00:20:48;93365.00;;;6.10
10598;BMP180;5346;48.766;8.674;2023-11-21T00:23:21;93376.00;;;6.20
10598;BMP180;5346;48.766;8.674;2023-11-21T00:25:49;93377.00;;;6.10
10598;BMP180;5346;48.766;8.674;2023-11-21T00:28:25;93367.00;;;6.10
10598;BMP180;5346;48.766;8.674;2023-11-21T00:30:53;93374.00;;;6.00
10598;BMP180;5346;48.766;8.674;2023-11-21T00:33:27;93374.00;;;5.90
10598;BMP180;5346;48.766;8.674;2023-11-21T00:35:55;93375.00;;;5.80
10598;BMP180;5346;48.766;8.674;2023-11-21T00:38:31;93368.00;;;5.90
10598;BMP180;5346;48.766;8.674;2023-11-21T00:41:06;93362.00;;;6.00
10598;BMP180;5346;48.766;8.674;2023-11-21T00:43:34;93366.00;;;6.10
10598;BMP180;5346;48.766;8.674;2023-11-21T00:46:08;93369.00;;;6.00
10598;BMP180;5346;48.766;8.674;2023-11-21T00:48:37;93369.00;;;6.20
10598;BMP180;5346;48.766;8.674;2023-11-21T00:51:11;93365.00;;;6.10
10598;BMP180;5346;48.766;8.674;2023-11-21T00:53:39;93366.00;;;6.10
10598;BMP180;5346;48.766;8.674;2023-11-21T00:56:07;93363.00;;;6.10
10598;BMP180;5346;48.766;8.674;2023-11-21T00:58:42;93362.00;;;6.10
10598;BMP180;5346;48.766;8.674;2023-11-21T01:01:21;93363.00;;;6.20
10598;BMP180;5346;48.766;8.674;2023-11-21T01:03:58;93364.00;;;6.00
10598;BMP180;5346;48.766;8.674;2023-11-21T01:06:39;93367.00;;;6.10
10598;BMP180;5346;48.766;8.674;2023-11-21T01:09:09;93361.00;;;6.00
10598;BMP180;5346;48.766;8.674;2023-11-21T01:11:44;93366.00;;;6.10
10598;BMP180;5346;48.766;8.674;2023-11-21T01:14:18;93375.00;;;6.10
10598;BMP180;5346;48.766;8.674;2023-11-21T01:16:54;93367.00;;;6.10
10598;BMP180;5346;48.766;8.674;2023-11-21T01:19:29;93368.00;;;6.10
10598;BMP180;5346;48.766;8.674;2023-11-21T01:21:58;93374.00;;;6.10
10598;BMP180;5346;48.766;8.674;2023-11-21T01:24:32;93374.00;;;6.10
10598;BMP180;5346;48.766;8.674;2023-11-21T01:27:00;93369.00;;;6.10
10598;BMP180;5346;48.766;8.674;2023-11-21T01:29:34;93372.00;;;6.20
10598;BMP180;5346;48.766;8.674;2023-11-21T01:32:03;93372.00;;;6.20
10598;BMP180;5346;48.766;8.674;2023-11-21T01:34:31;93373.00;;;6.20
10598;BMP180;5346;48.766;8.674;2023-11-21T01:37:06;93374.00;;;6.20
10598;BMP180;5346;48.766;8.674;2023-11-21T01:39:33;93366.00;;;6.10
10598;BMP180;5346;48.766;8.674;2023-11-21T01:42:08;93368.00;;;6.00
10598;BMP180;5346;48.766;8.674;2023-11-21T01:44:44;93368.00;;;6.10
10598;BMP180;5346;48.766;8.674;2023-11-21T01:47:20;93361.00;;;6.00
10598;BMP180;5346;48.766;8.674;2023-11-21T01:49:49;93364.00;;;6.10
10598;BMP180;5346;48.766;8.674;2023-11-21T01:52:23;93366.00;;;6.10
10598;BMP180;5346;48.766;8.674;2023-11-21T01:54:51;93363.00;;;6.00
10598;BMP180;5346;48.766;8.674;2023-11-21T01:57:26;93359.00;;;5.90
10598;BMP180;5346;48.766;8.674;2023-11-21T01:59:55;93360.00;;;6.00
10598;BMP180;5346;48.766;8.674;2023-11-21T02:02:30;93365.00;;;6.10
10598;BMP180;5346;48.766;8.674;2023-11-21T02:04:59;93374.00;;;6.00
10598;BMP180;5346;48.766;8.674;2023-11-21T02:07:33;93356.00;;;6.00
10598;BMP180;5346;48.766;8.674;2023-11-21T02:10:08;93368.00;;;5.90
10598;BMP180;5346;48.766;8.674;2023-11-21T02:12:42;93362.00;;;6.00
10598;BMP180;5346;48.766;8.674;2023-11-21T02:15:13;93355.00;;;6.10
10598;BMP180;5346;48.766;8.674;2023-11-21T02:17:55;93359.00;;;6.10
10598;BMP180;5346;48.766;8.674;2023-11-21T02:20:23;93356.00;;;6.20
10598;BMP180;5346;48.766;8.674;2023-11-21T02:22:59;93357.00;;;6.10
10598;BMP180;5346;48.766;8.674;2023-11-21T02:25:32;93355.00;;;6.00
10598;BMP180;5346;48.766;8.674;2023-11-21T02:28:07;93357.00;;;6.10
10598;BMP180;5346;48.766;8.674;2023-11-21T02:30:37;93363.00;;;5.90
10598;BMP180;5346;48.766;8.674;2023-11-21T02:33:11;93359.00;;;5.80
10598;BMP180;5346;48.766;8.674;2023-11-21T02:35:46;93361.00;;;5.80
10598;BMP180;5346;48.766;8.674;2023-11-21T02:38:21;93357.00;;;5.80
10598;BMP180;5346;48.766;8.674;2023-11-21T02:40:58;93352.00;;;5.80
10598;BMP180;5346;48.766;8.674;2023-11-21T02:43:36;93346.00;;;5.80
10598;BMP180;5346;48.766;8.674;2023-11-21T02:46:12;93351.00;;;5.70
10598;BMP180;5346;48.766;8.674;2023-11-21T02:48:47;93357.00;;;5.70
10598;BMP180;5346;48.766;8.674;2023-11-21T02:51:21;93356.00;;;5.80
10598;BMP180;5346;48.766;8.674;2023-11-21T02:53:55;93348.00;;;5.80
10598;BMP180;5346;48.766;8.674;2023-11-21T02:56:33;93353.00;;;5.70
10598;BMP180;5346;48.766;8.674;2023-11-21T02:59:07;93353.00;;;5.70
10598;BMP180;5346;48.766;8.674;2023-11-21T03:01:42;93355.00;;;5.80
10598;BMP180;5346;48.766;8.674;2023-11-21T03:04:16;93355.00;;;5.90
10598;BMP180;5346;48.766;8.674;2023-11-21T03:06:45;93358.00;;;5.90
10598;BMP180;5346;48.766;8.674;2023-11-21T03:09:20;93353.00;;;5.90
10598;BMP180;5346;48.766;8.674;2023-11-21T03:11:54;93350.00;;;6.00
10598;BMP180;5346;48.766;8.674;2023-11-21T03:14:29;93345.00;;;6.00
10598;BMP180;5346;48.766;8.674;2023-11-21T03:16:57;93347.00;;;5.60
10598;BMP180;5346;48.766;8.674;2023-11-21T03:19:32;93353.00;;;5.90
10598;BMP180;5346;48.766;8.674;2023-11-21T03:22:00;93346.00;;;5.80
10598;BMP180;5346;48.766;8.674;2023-11-21T03:24:34;93350.00;;;5.80
10598;BMP180;5346;48.766;8.674;2023-11-21T03:27:02;93350.00;;;5.80
10598;BMP180;5346;48.766;8.674;2023-11-21T03:29:37;93347.00;;;5.80
10598;BMP180;5346;48.766;8.674;2023-11-21T03:32:11;93354.00;;;6.00
10598;BMP180;5346;48.766;8.674;2023-11-21T03:34:54;93340.00;;;5.70
10598;BMP180;5346;48.766;8.674;2023-11-21T03:37:36;93353.00;;;5.80
10598;BMP180;5346;48.766;8.674;2023-11-21T03:40:12;93358.00;;;5.80
10598;BMP180;5346;48.766;8.674;2023-11-21T03:42:47;93356.00;;;5.70
10598;BMP180;5346;48.766;8.674;2023-11-21T03:45:16;93357.00;;;5.80
10598;BMP180;5346;48.766;8.674;2023-11-21T03:47:44;93352.00;;;5.70
10598;BMP180;5346;48.766;8.674;2023-11-21T03:50:19;93347.00;;;5.70
10598;BMP180;5346;48.766;8.674;2023-11-21T03:52:55;93353.00;;;5.70
10598;BMP180;5346;48.766;8.674;2023-11-21T03:55:31;93362.00;;;5.60
10598;BMP180;5346;48.766;8.674;2023-11-21T03:58:05;93363.00;;;5.60
10598;BMP180;5346;48.766;8.674;2023-11-21T04:00:32;93370.00;;;5.60
10598;BMP180;5346;48.766;8.674;2023-11-21T04:03:08;93363.00;;;5.70
10598;BMP180;5346;48.766;8.674;2023-11-21T04:05:37;93365.00;;;5.70
10598;BMP180;5346;48.766;8.674;2023-11-21T04:08:18;93368.00;;;5.70
10598;BMP180;5346;48.766;8.674;2023-11-21T04:10:46;93362.00;;;5.80
10598;BMP180;5346;48.766;8.674;2023-11-21T04:13:21;93363.00;;;5.70
10598;BMP180;5346;48.766;8.674;2023-11-21T04:15:55;93370.00;;;5.60
10598;BMP180;5346;48.766;8.674;2023-11-21T04:18:23;93362.00;;;5.70
10598;BMP180;5346;48.766;8.674;2023-11-21T04:20:58;93367.00;;;5.70
10598;BMP180;5346;48.766;8.674;2023-11-21T04:23:25;93371.00;;;5.60
10598;BMP180;5346;48.766;8.674;2023-11-21T04:25:53;93371.00;;;5.60
10598;BMP180;5346;48.766;8.674;2023-11-21T04:28:32;93373.00;;;5.70
10598;BMP180;5346;48.766;8.674;2023-11-21T04:31:00;93375.00;;;5.60
10598;BMP180;5346;48.766;8.674;2023-11-21T04:33:34;93376.00;;;5.70
10598;BMP180;5346;48.766;8.674;2023-11-21T04:36:01;93376.00;;;5.70
10598;BMP180;5346;48.766;8.674;2023-11-21T04:38:36;93378.00;;;5.70
10598;BMP180;5346;48.766;8.674;2023-11-21T04:41:11;93381.00;;;5.70
10598;BMP180;5346;48.766;8.674;2023-11-21T04:43:40;93387.00;;;5.70
10598;BMP180;5346;48.766;8.674;2023-11-21T04:46:09;93376.00;;;5.80
10598;BMP180;5346;48.766;8.674;2023-11-21T04:48:44;93381.00;;;5.80
10598;BMP180;5346;48.766;8.674;2023-11-21T04:51:19;93385.00;;;5.60
10598;BMP180;5346;48.766;8.674;2023-11-21T04:53:54;93384.00;;;5.70
10598;BMP180;5346;48.766;8.674;2023-11-21T04:56:28;93392.00;;;5.70
10598;BMP180;5346;48.766;8.674;2023-11-21T04:58:55;93389.00;;;5.80
10598;BMP180;5346;48.766;8.674;2023-11-21T05:01:31;93383.00;;;5.70
10598;BMP180;5346;48.766;8.674;2023-11-21T05:04:06;93389.00;;;5.60
10598;BMP180;5346;48.766;8.674;2023-11-21T05:06:49;93393.00;;;5.60
10598;BMP180;5346;48.766;8.674;2023-11-21T05:09:30;93389.00;;;5.60
10598;BMP180;5346;48.766;8.674;2023-11-21T05:12:07;93397.00;;;5.60
10598;BMP180;5346;48.766;8.674;2023-11-21T05:14:34;93390.00;;;5.60
10598;BMP180;5346;48.766;8.674;2023-11-21T05:17:11;93397.00;;;5.60
10598;BMP180;5346;48.766;8.674;2023-11-21T05:19:39;93402.00;;;5.60
10598;BMP180;5346;48.766;8.674;2023-11-21T05:22:16;93351.00;;;5.70
10598;BMP180;5346;48.766;8.674;2023-11-21T05:24:50;93400.00;;;5.70
10598;BMP180;5346;48.766;8.674;2023-11-21T05:27:18;93403.00;;;5.70
10598;BMP180;5346;48.766;8.674;2023-11-21T05:29:52;93400.00;;;5.70
10598;BMP180;5346;48.766;8.674;2023-11-21T05:32:26;93403.00;;;5.70
10598;BMP180;5346;48.766;8.674;2023-11-21T05:35:00;93407.00;;;5.70
10598;BMP180;5346;48.766;8.674;2023-11-21T05:37:36;93424.00;;;5.70
10598;BMP180;5346;48.766;8.674;2023-11-21T05:40:05;93415.00;;;5.60
10598;BMP180;5346;48.766;8.674;2023-11-21T05:42:41;93416.00;;;5.60
10598;BMP180;5346;48.766;8.674;2023-11-21T05:45:10;93419.00;;;5.70
10598;BMP180;5346;48.766;8.674;2023-11-21T05:47:46;93423.00;;;5.70
10598;BMP180;5346;48.766;8.674;2023-11-21T05:50:16;93420.00;;;5.60
10598;BMP180;5346;48.766;8.674;2023-11-21T05:52:51;93421.00;;;5.60
10598;BMP180;5346;48.766;8.674;2023-11-21T05:55:18;93427.00;;;5.60
10598;BMP180;5346;48.766;8.674;2023-11-21T05:57:55;93425.00;;;5.60
10598;BMP180;5346;48.766;8.674;2023-11-21T06:00:29;93415.00;;;5.60
10598;BMP180;5346;48.766;8.674;2023-11-21T06:02:56;93421.00;;;5.60
10598;BMP180;5346;48.766;8.674;2023-11-21T06:05:32;93423.00;;;5.60
10598;BMP180;5346;48.766;8.674;2023-11-21T06:08:07;93423.00;;;5.60
10598;BMP180;5346;48.766;8.674;2023-11-21T06:10:42;93433.00;;;5.60
10598;BMP180;5346;48.766;8.674;2023-11-21T06:13:17;93434.00;;;5.60
10598;BMP180;5346;48.766;8.674;2023-11-21T06:15:54;93441.00;;;5.60
10598;BMP180;5346;48.766;8.674;2023-11-21T06:18:22;93438.00;;;5.70
10598;BMP180;5346;48.766;8.674;2023-11-21T06:20:56;93436.00;;;5.70
10598;BMP180;5346;48.766;8.674;2023-11-21T06:23:30;93436.00;;;5.60
10598;BMP180;5346;48.766;8.674;2023-11-21T06:25:58;93447.00;;;5.50
10598;BMP180;5346;48.766;8.674;2023-11-21T06:28:32;93446.00;;;5.60
10598;BMP180;5346;48.766;8.674;2023-11-21T06:31:00;93439.00;;;5.50
10598;BMP180;5346;48.766;8.674;2023-11-21T06:33:40;93441.00;;;5.40
10598;BMP180;5346;48.766;8.674;2023-11-21T06:36:14;93441.00;;;5.50
10598;BMP180;5346;48.766;8.674;2023-11-21T06:38:41;93445.00;;;5.50
10598;BMP180;5346;48.766;8.674;2023-11-21T06:41:16;93445.00;;;5.50
10598;BMP180;5346;48.766;8.674;2023-11-21T06:43:43;93439.00;;;5.40
10598;BMP180;5346;48.766;8.674;2023-11-21T06:46:20;93443.00;;;5.30
10598;BMP180;5346;48.766;8.674;2023-11-21T06:48:49;93446.00;;;5.20
10598;BMP180;5346;48.766;8.674;2023-11-21T06:51:18;93443.00;;;5.40
10598;BMP180;5346;48.766;8.674;2023-11-21T06:53:53;93447.00;;;5.30
10598;BMP180;5346;48.766;8.674;2023-11-21T06:56:21;93460.00;;;5.20
10598;BMP180;5346;48.766;8.674;2023-11-21T06:58:58;93457.00;;;5.30
10598;BMP180;5346;48.766;8.674;2023-11-21T07:01:33;93453.00;;;5.40
10598;BMP180;5346;48.766;8.674;2023-11-21T07:04:13;93463.00;;;5.40
10598;BMP180;5346;48.766;8.674;2023-11-21T07:06:41;93469.00;;;5.40
10598;BMP180;5346;48.766;8.674;2023-11-21T07:09:23;93489.00;;;5.20
10598;BMP180;5346;48.766;8.674;2023-11-21T07:11:59;93470.00;;;5.40
10598;BMP180;5346;48.766;8.674;2023-11-21T07:14:34;93473.00;;;5.40
10598;BMP180;5346;48.766;8.674;2023-11-21T07:17:10;93479.00;;;5.50
10598;BMP180;5346;48.766;8.674;2023-11-21T07:19:39;93484.00;;;5.50
10598;BMP180;5346;48.766;8.674;2023-11-21T07:22:14;93497.00;;;5.40
10598;BMP180;5346;48.766;8.674;2023-11-21T07:24:44;93494.00;;;5.50
10598;BMP180;5346;48.766;8.674;2023-11-21T07:27:21;93498.00;;;5.50
10598;BMP180;5346;48.766;8.674;2023-11-21T07:29:48;93496.00;;;5.70
10598;BMP180;5346;48.766;8.674;2023-11-21T07:32:32;93495.00;;;5.80
10598;BMP180;5346;48.766;8.674;2023-11-21T07:35:00;93505.00;;;5.60
10598;BMP180;5346;48.766;8.674;2023-11-21T07:37:36;93503.00;;;5.90
10598;BMP180;5346;48.766;8.674;2023-11-21T07:40:03;93508.00;;;5.90
10598;BMP180;5346;48.766;8.674;2023-11-21T07:42:32;93508.00;;;5.90
10598;BMP180;5346;48.766;8.674;2023-11-21T07:45:07;93509.00;;;6.00
10598;BMP180;5346;48.766;8.674;2023-11-21T07:47:34;93515.00;;;6.00
10598;BMP180;5346;48.766;8.674;2023-11-21T07:50:09;93512.00;;;6.10
10598;BMP180;5346;48.766;8.674;2023-11-21T07:52:36;93511.00;;;6.10
10598;BMP180;5346;48.766;8.674;2023-11-21T07:55:05;93516.00;;;6.20
10598;BMP180;5346;48.766;8.674;2023-11-21T07:57:39;93524.00;;;6.20
10598;BMP180;5346;48.766;8.674;2023-11-21T08:00:15;93523.00;;;6.10
10598;BMP180;5346;48.766;8.674;2023-11-21T08:02:50;93518.00;;;6.30
10598;BMP180;5346;48.766;8.674;2023-11-21T08:05:18;93518.00;;;6.30
10598;BMP180;5346;48.766;8.674;2023-11-21T08:08:12;93525.00;;;6.40
10598;BMP180;5346;48.766;8.674;2023-11-21T08:10:39;93525.00;;;6.50
10598;BMP180;5346;48.766;8.674;2023-11-21T08:13:14;93520.00;;;6.40
10598;BMP180;5346;48.766;8.674;2023-11-21T08:15:43;93519.00;;;6.50
10598;BMP180;5346;48.766;8.674;2023-11-21T08:18:21;93520.00;;;6.50
10598;BMP180;5346;48.766;8.674;2023-11-21T08:20:50;93526.00;;;6.40
10598;BMP180;5346;48.766;8.674;2023-11-21T08:23:25;93526.00;;;6.50
10598;BMP180;5346;48.766;8.674;2023-11-21T08:25:54;93525.00;;;6.70
10598;BMP180;5346;48.766;8.674;2023-11-21T08:28:30;93523.00;;;7.10
10598;BMP180;5346;48.766;8.674;2023-11-21T08:30:57;93522.00;;;7.30
10598;BMP180;5346;48.766;8.674;2023-11-21T08:33:37;93529.00;;;7.40
10598;BMP180;5346;48.766;8.674;2023-11-21T08:36:11;93535.00;;;7.30
10598;BMP180;5346;48.766;8.674;2023-11-21T08:38:47;93540.00;;;7.30
10598;BMP180;5346;48.766;8.674;2023-11-21T08:41:16;93533.00;;;7.30
10598;BMP180;5346;48.766;8.674;2023-11-21T08:43:51;93537.00;;;7.40
10598;BMP180;5346;48.766;8.674;2023-11-21T08:46:19;93543.00;;;7.40
10598;BMP180;5346;48.766;8.674;2023-11-21T08:48:54;93541.00;;;7.50
10598;BMP180;5346;48.766;8.674;2023-11-21T08:51:27;93543.00;;;7.00
10598;BMP180;5346;48.766;8.674;2023-11-21T08:53:55;93548.00;;;7.40
10598;BMP180;5346;48.766;8.674;2023-11-21T08:56:35;93548.00;;;7.30
10598;BMP180;5346;48.766;8.674;2023-11-21T08:59:03;93554.00;;;7.10
10598;BMP180;5346;48.766;8.674;2023-11-21T09:01:37;93550.00;;;7.20
10598;BMP180;5346;48.766;8.674;2023-11-21T09:04:05;93550.00;;;7.50
10598;BMP180;5346;48.766;8.674;2023-11-21T09:06:40;93554.00;;;7.60
10598;BMP180;5346;48.766;8.674;2023-11-21T09:09:14;93561.00;;;7.40
10598;BMP180;5346;48.766;8.674;2023-11-21T09:11:55;93561.00;;;7.30
10598;BMP180;5346;48.766;8.674;2023-11-21T09:14:24;93566.00;;;7.20
10598;BMP180;5346;48.766;8.674;2023-11-21T09:16:52;93567.00;;;7.20
10598;BMP180;5346;48.766;8.674;2023-11-21T09:19:28;93570.00;;;7.30
10598;BMP180;5346;48.766;8.674;2023-11-21T09:21:56;93570.00;;;7.20
10598;BMP180;5346;48.766;8.674;2023-11-21T09:24:24;93586.00;;;7.20
10598;BMP180;5346;48.766;8.674;2023-11-21T09:27:01;93591.00;;;6.80
10598;BMP180;5346;48.766;8.674;2023-11-21T09:29:36;93592.00;;;6.70
10598;BMP180;5346;48.766;8.674;2023-11-21T09:32:08;93593.00;;;6.70
10598;BMP180;5346;48.766;8.674;2023-11-21T09:34:44;93599.00;;;6.90
10598;BMP180;5346;48.766;8.674;2023-11-21T09:37:19;93609.00;;;7.10
10598;BMP180;5346;48.766;8.674;2023-11-21T09:39:54;93601.00;;;6.80
10598;BMP180;5346;48.766;8.674;2023-11-21T09:42:38;93606.00;;;6.80
10598;BMP180;5346;48.766;8.674;2023-11-21T09:45:25;93621.00;;;7.20
10598;BMP180;5346;48.766;8.674;2023-11-21T09:48:01;93618.00;;;7.10
10598;BMP180;5346;48.766;8.674;2023-11-21T09:50:31;93610.00;;;7.00
10598;BMP180;5346;48.766;8.674;2023-11-21T09:55:48;93617.00;;;7.00
10598;BMP180;5346;48.766;8.674;2023-11-21T09:58:22;93616.00;;;6.70
10598;BMP180;5346;48.766;8.674;2023-11-21T10:01:00;93620.00;;;7.00
10598;BMP180;5346;48.766;8.674;2023-11-21T10:03:37;93616.00;;;7.10
10598;BMP180;5346;48.766;8.674;2023-11-21T10:06:13;93614.00;;;6.70
10598;BMP180;5346;48.766;8.674;2023-11-21T10:08:59;93613.00;;;7.00
10598;BMP180;5346;48.766;8.674;2023-11-21T10:11:45;93616.00;;;7.40
10598;BMP180;5346;48.766;8.674;2023-11-21T10:14:26;93608.00;;;7.40
10598;BMP180;5346;48.766;8.674;2023-11-21T10:16:57;93613.00;;;7.10
10598;BMP180;5346;48.766;8.674;2023-11-21T10:19:31;93620.00;;;7.20
10598;BMP180;5346;48.766;8.674;2023-11-21T10:22:07;93612.00;;;7.20
10598;BMP180;5346;48.766;8.674;2023-11-21T10:24:40;93622.00;;;7.30
10598;BMP180;5346;48.766;8.674;2023-11-21T10:27:20;93610.00;;;7.70
10598;BMP180;5346;48.766;8.674;2023-11-21T10:29:51;93615.00;;;7.80
10598;BMP180;5346;48.766;8.674;2023-11-21T10:32:29;93615.00;;;7.50
10598;BMP180;5346;48.766;8.674;2023-11-21T10:35:00;93623.00;;;7.40
10598;BMP180;5346;48.766;8.674;2023-11-21T10:37:40;93627.00;;;7.50
10598;BMP180;5346;48.766;8.674;2023-11-21T10:40:15;93625.00;;;7.40
10598;BMP180;5346;48.766;8.674;2023-11-21T10:42:51;93623.00;;;7.30
10598;BMP180;5346;48.766;8.674;2023-11-21T10:45:20;93634.00;;;7.10
10598;BMP180;5346;48.766;8.674;2023-11-21T10:48:00;93629.00;;;6.90
10598;BMP180;5346;48.766;8.674;2023-11-21T10:50:28;93631.00;;;6.90
10598;BMP180;5346;48.766;8.674;2023-11-21T10:53:06;93642.00;;;7.10
10598;BMP180;5346;48.766;8.674;2023-11-21T10:55:34;93632.00;;;7.10
10598;BMP180;5346;48.766;8.674;2023-11-21T10:58:10;93637.00;;;7.50
10598;BMP180;5346;48.766;8.674;2023-11-21T11:00:39;93634.00;;;7.50
10598;BMP180;5346;48.766;8.674;2023-11-21T11:03:08;93631.00;;;7.50
10598;BMP180;5346;48.766;8.674;2023-11-21T11:05:48;93639.00;;;7.50
10598;BMP180;5346;48.766;8.674;2023-11-21T11:08:27;93639.00;;;7.40
10598;BMP180;5346;48.766;8.674;2023-11-21T11:11:01;93636.00;;;7.40
10598;BMP180;5346;48.766;8.674;2023-11-21T11:13:31;93635.00;;;6.90
10598;BMP180;5346;48.766;8.674;2023-11-21T11:16:06;93643.00;;;7.00
10598;BMP180;5346;48.766;8.674;2023-11-21T11:18:38;93645.00;;;7.00
10598;BMP180;5346;48.766;8.674;2023-11-21T11:21:23;93650.00;;;6.90
10598;BMP180;5346;48.766;8.674;2023-11-21T11:24:24;93655.00;;;6.80
10598;BMP180;5346;48.766;8.674;2023-11-21T11:27:12;93660.00;;;7.10
10598;BMP180;5346;48.766;8.674;2023-11-21T11:36:29;93649.00;;;7.20
10598;BMP180;5346;48.766;8.674;2023-11-21T11:38:57;93649.00;;;7.50
10598;BMP180;5346;48.766;8.674;2023-11-21T11:41:32;93663.00;;;7.30
10598;BMP180;5346;48.766;8.674;2023-11-21T11:47:32;93654.00;;;7.10
10598;BMP180;5346;48.766;8.674;2023-11-21T11:50:11;93658.00;;;7.20
10598;BMP180;5346;48.766;8.674;2023-11-21T11:52:47;93654.00;;;7.00
10598;BMP180;5346;48.766;8.674;2023-11-21T11:55:24;93651.00;;;7.10
10598;BMP180;5346;48.766;8.674;2023-11-21T11:57:58;93657.00;;;7.50
10598;BMP180;5346;48.766;8.674;2023-11-21T12:00:36;93653.00;;;7.50
10598;BMP180;5346;48.766;8.674;2023-11-21T12:03:14;93655.00;;;7.30
10598;BMP180;5346;48.766;8.674;2023-11-21T12:05:48;93653.00;;;7.10
10598;BMP180;5346;48.766;8.674;2023-11-21T12:08:17;93657.00;;;7.10
10598;BMP180;5346;48.766;8.674;2023-11-21T12:11:12;93656.00;;;7.00
10598;BMP180;5346;48.766;8.674;2023-11-21T12:13:50;93660.00;;;7.00
10598;BMP180;5346;48.766;8.674;2023-11-21T12:16:28;93668.00;;;7.00
10598;BMP180;5346;48.766;8.674;2023-11-21T12:18:55;93660.00;;;7.00
10598;BMP180;5346;48.766;8.674;2023-11-21T12:21:32;93668.00;;;7.00
10598;BMP180;5346;48.766;8.674;2023-11-21T12:24:00;93659.00;;;7.00
10598;BMP180;5346;48.766;8.674;2023-11-21T12:26:35;93673.00;;;6.90
10598;BMP180;5346;48.766;8.674;2023-11-21T12:29:12;93674.00;;;6.90
10598;BMP180;5346;48.766;8.674;2023-11-21T12:31:48;93670.00;;;6.80
10598;BMP180;5346;48.766;8.674;2023-11-21T12:34:25;93666.00;;;6.90
10598;BMP180;5346;48.766;8.674;2023-11-21T12:36:59;93677.00;;;6.70
10598;BMP180;5346;48.766;8.674;2023-11-21T12:39:34;93688.00;;;6.80
10598;BMP180;5346;48.766;8.674;2023-11-21T12:42:08;93678.00;;;6.70
10598;BMP180;5346;48.766;8.674;2023-11-21T12:44:45;93685.00;;;6.70
10598;BMP180;5346;48.766;8.674;2023-11-21T12:47:21;93691.00;;;6.70
10598;BMP180;5346;48.766;8.674;2023-11-21T12:49:50;93683.00;;;6.70
10598;BMP180;5346;48.766;8.674;2023-11-21T12:52:18;93690.00;;;6.60
10598;BMP180;5346;48.766;8.674;2023-11-21T12:54:52;93684.00;;;6.50
10598;BMP180;5346;48.766;8.674;2023-11-21T12:57:25;93692.00;;;6.70
10598;BMP180;5346;48.766;8.674;2023-11-21T13:00:01;93693.00;;;6.70
10598;BMP180;5346;48.766;8.674;2023-11-21T13:02:38;93690.00;;;6.80
10598;BMP180;5346;48.766;8.674;2023-11-21T13:05:12;93686.00;;;6.70
10598;BMP180;5346;48.766;8.674;2023-11-21T13:07:49;93696.00;;;6.70
10598;BMP180;5346;48.766;8.674;2023-11-21T13:10:39;93696.00;;;6.80
10598;BMP180;5346;48.766;8.674;2023-11-21T13:13:14;93698.00;;;6.90
10598;BMP180;5346;48.766;8.674;2023-11-21T13:15:53;93697.00;;;7.00
10598;BMP180;5346;48.766;8.674;2023-11-21T13:18:31;93692.00;;;7.30
10598;BMP180;5346;48.766;8.674;2023-11-21T13:21:01;93696.00;;;7.50
10598;BMP180;5346;48.766;8.674;2023-11-21T13:23:38;93696.00;;;7.60
10598;BMP180;5346;48.766;8.674;2023-11-21T13:26:13;93710.00;;;7.50
10598;BMP180;5346;48.766;8.674;2023-11-21T13:28:42;93711.00;;;7.30
10598;BMP180;5346;48.766;8.674;2023-11-21T13:31:20;93721.00;;;6.70
10598;BMP180;5346;48.766;8.674;2023-11-21T13:33:51;93715.00;;;6.50
10598;BMP180;5346;48.766;8.674;2023-11-21T13:36:29;93714.00;;;6.40
10598;BMP180;5346;48.766;8.674;2023-11-21T13:39:07;93720.00;;;6.10
10598;BMP180;5346;48.766;8.674;2023-11-21T13:41:38;93735.00;;;6.20
10598;BMP180;5346;48.766;8.674;2023-11-21T13:44:12;93729.00;;;6.10
10598;BMP180;5346;48.766;8.674;2023-11-21T13:46:54;93738.00;;;6.20
10598;BMP180;5346;48.766;8.674;2023-11-21T13:49:33;93730.00;;;6.20
10598;BMP180;5346;48.766;8.674;2023-11-21T13:52:16;93733.00;;;6.30
10598;BMP180;5346;48.766;8.674;2023-11-21T13:54:46;93733.00;;;6.20
10598;BMP180;5346;48.766;8.674;2023-11-21T13:57:21;93739.00;;;6.30
10598;BMP180;5346;48.766;8.674;2023-11-21T13:59:49;93735.00;;;6.40
10598;BMP180;5346;48.766;8.674;2023-11-21T14:02:25;93738.00;;;6.50
10598;BMP180;5346;48.766;8.674;2023-11-21T14:05:08;93738.00;;;6.50
10598;BMP180;5346;48.766;8.674;2023-11-21T14:07:37;93750.00;;;6.50
10598;BMP180;5346;48.766;8.674;2023-11-21T14:10:05;93750.00;;;6.40
10598;BMP180;5346;48.766;8.674;2023-11-21T14:12:42;93759.00;;;6.50
10598;BMP180;5346;48.766;8.674;2023-11-21T14:15:22;93755.00;;;6.70
10598;BMP180;5346;48.766;8.674;2023-11-21T14:17:50;93757.00;;;6.60
10598;BMP180;5346;48.766;8.674;2023-11-21T14:20:28;93760.00;;;6.60
10598;BMP180;5346;48.766;8.674;2023-11-21T14:22:57;93758.00;;;6.50
10598;BMP180;5346;48.766;8.674;2023-11-21T14:25:33;93754.00;;;6.50
10598;BMP180;5346;48.766;8.674;2023-11-21T14:28:01;93763.00;;;6.60
10598;BMP180;5346;48.766;8.674;2023-11-21T14:30:38;93767.00;;;6.70
10598;BMP180;5346;48.766;8.674;2023-11-21T14:33:07;93764.00;;;6.60
10598;BMP180;5346;48.766;8.674;2023-11-21T14:35:44;93773.00;;;6.60
10598;BMP180;5346;48.766;8.674;2023-11-21T14:38:12;93775.00;;;6.50
10598;BMP180;5346;48.766;8.674;2023-11-21T14:40:48;93785.00;;;6.40
10598;BMP180;5346;48.766;8.674;2023-11-21T14:43:18;93780.00;;;6.40
10598;BMP180;5346;48.766;8.674;2023-11-21T14:45:54;93787.00;;;6.30
10598;BMP180;5346;48.766;8.674;2023-11-21T14:48:26;93792.00;;;6.20
10598;BMP180;5346;48.766;8.674;2023-11-21T14:51:16;93795.00;;;6.00
10598;BMP180;5346;48.766;8.674;2023-11-21T14:54:06;93801.00;;;5.80
10598;BMP180;5346;48.766;8.674;2023-11-21T14:56:40;93808.00;;;6.00
10598;BMP180;5346;48.766;8.674;2023-11-21T14:59:16;93814.00;;;6.10
10598;BMP180;5346;48.766;8.674;2023-11-21T15:01:51;93808.00;;;6.00
10598;BMP180;5346;48.766;8.674;2023-11-21T15:04:26;93811.00;;;5.80
10598;BMP180;5346;48.766;8.674;2023-11-21T15:07:10;93819.00;;;5.90
10598;BMP180;5346;48.766;8.674;2023-11-21T15:09:47;93819.00;;;5.80
10598;BMP180;5346;48.766;8.674;2023-11-21T15:12:23;93817.00;;;5.80
10598;BMP180;5346;48.766;8.674;2023-11-21T15:14:55;93827.00;;;5.90
10598;BMP180;5346;48.766;8.674;2023-11-21T15:17:31;93825.00;;;6.00
10598;BMP180;5346;48.766;8.674;2023-11-21T15:20:01;93831.00;;;5.90
10598;BMP180;5346;48.766;8.674;2023-11-21T15:22:36;93830.00;;;6.00
10598;BMP180;5346;48.766;8.674;2023-11-21T15:25:05;93834.00;;;5.90